sensor_id;sensor_type;location;lat;lon;timestamp;P1;durP1;ratioP1;P2;durP2;ratioP2
41817;SDS011;27493;51.730;5.294;2023-02-11T00:01:44;16.50;;;7.53;;
41817;SDS011;27493;51.730;5.294;2023-02-11T00:04:09;18.70;;;7.67;;
41817;SDS011;27493;51.730;5.294;2023-02-11T00:06:35;18.23;;;7.23;;
41817;SDS011;27493;51.730;5.294;2023-02-11T00:09:00;10.77;;;6.60;;
41817;SDS011;27493;51.730;5.294;2023-02-11T00:11:26;17.83;;;7.33;;
41817;SDS011;27493;51.730;5.294;2023-02-11T00:13:58;15.33;;;6.63;;
41817;SDS011;27493;51.730;5.294;2023-02-11T00:16:23;15.17;;;6.80;;
41817;SDS011;27493;51.730;5.294;2023-02-11T00:18:48;16.90;;;6.57;;
41817;SDS011;27493;51.730;5.294;2023-02-11T00:21:24;17.77;;;7.33;;
41817;SDS011;27493;51.730;5.294;2023-02-11T00:23:49;13.77;;;7.10;;
41817;SDS011;27493;51.730;5.294;2023-02-11T00:26:16;15.53;;;5.70;;
41817;SDS011;27493;51.730;5.294;2023-02-11T00:28:42;14.30;;;6.47;;
41817;SDS011;27493;51.730;5.294;2023-02-11T00:31:07;16.37;;;5.97;;
41817;SDS011;27493;51.730;5.294;2023-02-11T00:33:32;15.63;;;6.43;;
41817;SDS011;27493;51.730;5.294;2023-02-11T00:35:58;18.60;;;6.37;;
41817;SDS011;27493;51.730;5.294;2023-02-11T00:38:27;14.83;;;5.70;;
41817;SDS011;27493;51.730;5.294;2023-02-11T00:40:52;18.77;;;5.93;;
41817;SDS011;27493;51.730;5.294;2023-02-11T00:43:17;12.90;;;5.33;;
41817;SDS011;27493;51.730;5.294;2023-02-11T00:45:42;10.93;;;5.47;;
41817;SDS011;27493;51.730;5.294;2023-02-11T00:48:08;19.07;;;5.87;;
41817;SDS011;27493;51.730;5.294;2023-02-11T00:50:33;17.60;;;5.70;;
41817;SDS011;27493;51.730;5.294;2023-02-11T00:52:58;14.73;;;5.83;;
41817;SDS011;27493;51.730;5.294;2023-02-11T00:55:23;21.40;;;5.60;;
41817;SDS011;27493;51.730;5.294;2023-02-11T00:57:48;18.87;;;5.37;;
41817;SDS011;27493;51.730;5.294;2023-02-11T01:00:14;15.23;;;5.40;;
41817;SDS011;27493;51.730;5.294;2023-02-11T01:02:39;19.20;;;6.27;;
41817;SDS011;27493;51.730;5.294;2023-02-11T01:05:05;14.10;;;5.57;;
41817;SDS011;27493;51.730;5.294;2023-02-11T01:07:30;14.50;;;5.17;;
41817;SDS011;27493;51.730;5.294;2023-02-11T01:09:55;15.40;;;5.37;;
41817;SDS011;27493;51.730;5.294;2023-02-11T01:12:20;15.50;;;4.87;;
41817;SDS011;27493;51.730;5.294;2023-02-11T01:14:46;21.03;;;5.10;;
41817;SDS011;27493;51.730;5.294;2023-02-11T01:17:11;17.53;;;5.70;;
41817;SDS011;27493;51.730;5.294;2023-02-11T01:19:36;15.53;;;5.80;;
41817;SDS011;27493;51.730;5.294;2023-02-11T01:22:01;19.07;;;5.50;;
41817;SDS011;27493;51.730;5.294;2023-02-11T01:24:27;19.80;;;6.00;;
41817;SDS011;27493;51.730;5.294;2023-02-11T01:26:52;14.67;;;4.90;;
41817;SDS011;27493;51.730;5.294;2023-02-11T01:29:17;11.80;;;4.97;;
41817;SDS011;27493;51.730;5.294;2023-02-11T01:31:42;13.07;;;5.27;;
41817;SDS011;27493;51.730;5.294;2023-02-11T01:34:07;16.07;;;4.43;;
41817;SDS011;27493;51.730;5.294;2023-02-11T01:36:32;12.63;;;5.07;;
41817;SDS011;27493;51.730;5.294;2023-02-11T01:38:58;16.60;;;5.83;;
41817;SDS011;27493;51.730;5.294;2023-02-11T01:41:24;15.27;;;5.00;;
41817;SDS011;27493;51.730;5.294;2023-02-11T01:43:49;13.67;;;5.00;;
41817;SDS011;27493;51.730;5.294;2023-02-11T01:48:53;14.57;;;5.20;;
41817;SDS011;27493;51.730;5.294;2023-02-11T01:51:29;14.73;;;5.37;;
41817;SDS011;27493;51.730;5.294;2023-02-11T01:53:56;10.10;;;5.53;;
41817;SDS011;27493;51.730;5.294;2023-02-11T01:56:42;15.53;;;5.70;;
41817;SDS011;27493;51.730;5.294;2023-02-11T01:59:31;16.57;;;5.20;;
41817;SDS011;27493;51.730;5.294;2023-02-11T02:01:57;14.87;;;5.50;;
41817;SDS011;27493;51.730;5.294;2023-02-11T02:04:24;15.37;;;5.20;;
41817;SDS011;27493;51.730;5.294;2023-02-11T02:06:56;17.13;;;5.83;;
41817;SDS011;27493;51.730;5.294;2023-02-11T02:09:24;17.20;;;6.03;;
41817;SDS011;27493;51.730;5.294;2023-02-11T02:11:51;18.30;;;6.50;;
41817;SDS011;27493;51.730;5.294;2023-02-11T02:14:16;23.97;;;6.57;;
41817;SDS011;27493;51.730;5.294;2023-02-11T02:16:41;16.07;;;6.00;;
41817;SDS011;27493;51.730;5.294;2023-02-11T02:21:57;15.70;;;5.47;;
41817;SDS011;27493;51.730;5.294;2023-02-11T02:32:38;12.50;;;5.80;;
41817;SDS011;27493;51.730;5.294;2023-02-11T02:37:54;14.47;;;5.83;;
41817;SDS011;27493;51.730;5.294;2023-02-11T02:40:22;20.80;;;6.47;;
41817;SDS011;27493;51.730;5.294;2023-02-11T02:42:49;14.90;;;7.30;;
41817;SDS011;27493;51.730;5.294;2023-02-11T02:45:14;16.43;;;6.43;;
41817;SDS011;27493;51.730;5.294;2023-02-11T02:47:40;13.80;;;6.30;;
41817;SDS011;27493;51.730;5.294;2023-02-11T02:50:05;17.33;;;6.50;;
41817;SDS011;27493;51.730;5.294;2023-02-11T02:55:06;16.70;;;6.23;;
41817;SDS011;27493;51.730;5.294;2023-02-11T03:02:38;16.57;;;6.90;;
41817;SDS011;27493;51.730;5.294;2023-02-11T03:05:11;18.17;;;7.37;;
41817;SDS011;27493;51.730;5.294;2023-02-11T03:07:47;16.93;;;7.10;;
41817;SDS011;27493;51.730;5.294;2023-02-11T03:10:15;23.30;;;6.90;;
41817;SDS011;27493;51.730;5.294;2023-02-11T03:12:41;16.30;;;7.00;;
41817;SDS011;27493;51.730;5.294;2023-02-11T03:15:07;18.33;;;7.17;;
41817;SDS011;27493;51.730;5.294;2023-02-11T03:17:32;19.10;;;7.30;;
41817;SDS011;27493;51.730;5.294;2023-02-11T03:19:59;21.13;;;7.60;;
41817;SDS011;27493;51.730;5.294;2023-02-11T03:22:26;17.70;;;7.50;;
41817;SDS011;27493;51.730;5.294;2023-02-11T03:24:54;16.37;;;7.33;;
41817;SDS011;27493;51.730;5.294;2023-02-11T03:27:20;20.77;;;7.10;;
41817;SDS011;27493;51.730;5.294;2023-02-11T03:33:08;17.97;;;7.60;;
41817;SDS011;27493;51.730;5.294;2023-02-11T03:35:26;20.43;;;8.00;;
41817;SDS011;27493;51.730;5.294;2023-02-11T03:38:01;18.97;;;8.10;;
41817;SDS011;27493;51.730;5.294;2023-02-11T03:40:28;17.13;;;8.00;;
41817;SDS011;27493;51.730;5.294;2023-02-11T03:42:57;12.53;;;7.40;;
41817;SDS011;27493;51.730;5.294;2023-02-11T03:45:23;24.50;;;10.10;;
41817;SDS011;27493;51.730;5.294;2023-02-11T03:47:51;17.50;;;9.17;;
41817;SDS011;27493;51.730;5.294;2023-02-11T03:50:17;21.60;;;8.93;;
41817;SDS011;27493;51.730;5.294;2023-02-11T03:52:44;18.53;;;8.73;;
41817;SDS011;27493;51.730;5.294;2023-02-11T03:55:12;16.40;;;8.57;;
41817;SDS011;27493;51.730;5.294;2023-02-11T03:57:38;19.97;;;9.03;;
41817;SDS011;27493;51.730;5.294;2023-02-11T04:00:03;19.37;;;9.23;;
41817;SDS011;27493;51.730;5.294;2023-02-11T04:02:30;20.63;;;9.00;;
41817;SDS011;27493;51.730;5.294;2023-02-11T04:04:55;28.90;;;9.40;;
41817;SDS011;27493;51.730;5.294;2023-02-11T04:07:21;22.63;;;9.80;;
41817;SDS011;27493;51.730;5.294;2023-02-11T04:09:46;17.97;;;8.70;;
41817;SDS011;27493;51.730;5.294;2023-02-11T04:12:11;16.93;;;8.97;;
41817;SDS011;27493;51.730;5.294;2023-02-11T04:14:36;22.30;;;9.73;;
41817;SDS011;27493;51.730;5.294;2023-02-11T04:17:02;22.80;;;9.57;;
41817;SDS011;27493;51.730;5.294;2023-02-11T04:19:27;23.63;;;10.50;;
41817;SDS011;27493;51.730;5.294;2023-02-11T04:21:52;20.33;;;9.13;;
41817;SDS011;27493;51.730;5.294;2023-02-11T04:24:17;21.30;;;9.83;;
41817;SDS011;27493;51.730;5.294;2023-02-11T04:26:42;23.67;;;10.60;;
41817;SDS011;27493;51.730;5.294;2023-02-11T04:29:08;23.17;;;10.67;;
41817;SDS011;27493;51.730;5.294;2023-02-11T04:31:33;20.40;;;10.10;;
41817;SDS011;27493;51.730;5.294;2023-02-11T04:33:58;23.03;;;10.20;;
41817;SDS011;27493;51.730;5.294;2023-02-11T04:36:23;23.40;;;10.33;;
41817;SDS011;27493;51.730;5.294;2023-02-11T04:38:48;20.87;;;10.53;;
41817;SDS011;27493;51.730;5.294;2023-02-11T04:41:14;23.33;;;10.73;;
41817;SDS011;27493;51.730;5.294;2023-02-11T04:43:39;21.70;;;10.53;;
41817;SDS011;27493;51.730;5.294;2023-02-11T04:46:04;20.10;;;10.57;;
41817;SDS011;27493;51.730;5.294;2023-02-11T04:48:29;21.70;;;10.40;;
41817;SDS011;27493;51.730;5.294;2023-02-11T04:50:54;25.87;;;11.43;;
41817;SDS011;27493;51.730;5.294;2023-02-11T04:53:20;21.60;;;11.20;;
41817;SDS011;27493;51.730;5.294;2023-02-11T04:55:47;25.37;;;12.00;;
41817;SDS011;27493;51.730;5.294;2023-02-11T04:58:12;28.93;;;11.97;;
41817;SDS011;27493;51.730;5.294;2023-02-11T05:00:37;21.50;;;10.90;;
41817;SDS011;27493;51.730;5.294;2023-02-11T05:03:03;26.10;;;11.50;;
41817;SDS011;27493;51.730;5.294;2023-02-11T05:05:28;30.03;;;12.57;;
41817;SDS011;27493;51.730;5.294;2023-02-11T05:07:53;25.80;;;11.70;;
41817;SDS011;27493;51.730;5.294;2023-02-11T05:10:18;23.57;;;11.40;;
41817;SDS011;27493;51.730;5.294;2023-02-11T05:12:43;31.53;;;12.73;;
41817;SDS011;27493;51.730;5.294;2023-02-11T05:15:08;22.37;;;10.97;;
41817;SDS011;27493;51.730;5.294;2023-02-11T05:17:34;30.43;;;11.97;;
41817;SDS011;27493;51.730;5.294;2023-02-11T05:19:59;23.77;;;11.70;;
41817;SDS011;27493;51.730;5.294;2023-02-11T05:22:24;24.30;;;11.30;;
41817;SDS011;27493;51.730;5.294;2023-02-11T05:24:49;30.60;;;12.40;;
41817;SDS011;27493;51.730;5.294;2023-02-11T05:27:14;26.83;;;11.73;;
41817;SDS011;27493;51.730;5.294;2023-02-11T05:29:39;26.53;;;13.23;;
41817;SDS011;27493;51.730;5.294;2023-02-11T05:32:05;26.60;;;11.40;;
41817;SDS011;27493;51.730;5.294;2023-02-11T05:34:31;26.90;;;12.63;;
41817;SDS011;27493;51.730;5.294;2023-02-11T05:36:56;25.93;;;11.37;;
41817;SDS011;27493;51.730;5.294;2023-02-11T05:39:21;26.47;;;11.77;;
41817;SDS011;27493;51.730;5.294;2023-02-11T05:41:46;26.40;;;12.23;;
41817;SDS011;27493;51.730;5.294;2023-02-11T05:44:12;23.77;;;11.93;;
41817;SDS011;27493;51.730;5.294;2023-02-11T05:46:37;25.10;;;13.10;;
41817;SDS011;27493;51.730;5.294;2023-02-11T05:49:02;25.87;;;12.70;;
41817;SDS011;27493;51.730;5.294;2023-02-11T05:51:27;30.67;;;13.37;;
41817;SDS011;27493;51.730;5.294;2023-02-11T05:53:53;22.43;;;13.27;;
41817;SDS011;27493;51.730;5.294;2023-02-11T05:56:18;24.37;;;12.23;;
41817;SDS011;27493;51.730;5.294;2023-02-11T05:58:43;27.67;;;13.33;;
41817;SDS011;27493;51.730;5.294;2023-02-11T06:01:08;25.00;;;14.10;;
41817;SDS011;27493;51.730;5.294;2023-02-11T06:03:33;30.27;;;13.63;;
41817;SDS011;27493;51.730;5.294;2023-02-11T06:05:59;31.17;;;14.83;;
41817;SDS011;27493;51.730;5.294;2023-02-11T06:08:24;29.83;;;14.73;;
41817;SDS011;27493;51.730;5.294;2023-02-11T06:10:49;33.37;;;15.07;;
41817;SDS011;27493;51.730;5.294;2023-02-11T06:13:14;29.83;;;15.03;;
41817;SDS011;27493;51.730;5.294;2023-02-11T06:15:42;33.83;;;16.17;;
41817;SDS011;27493;51.730;5.294;2023-02-11T06:18:07;43.07;;;17.40;;
41817;SDS011;27493;51.730;5.294;2023-02-11T06:20:33;34.33;;;16.43;;
41817;SDS011;27493;51.730;5.294;2023-02-11T06:22:58;34.57;;;17.30;;
41817;SDS011;27493;51.730;5.294;2023-02-11T06:25:24;34.27;;;16.63;;
41817;SDS011;27493;51.730;5.294;2023-02-11T06:27:49;38.10;;;17.43;;
41817;SDS011;27493;51.730;5.294;2023-02-11T06:30:14;36.93;;;16.60;;
41817;SDS011;27493;51.730;5.294;2023-02-11T06:32:39;45.20;;;17.40;;
41817;SDS011;27493;51.730;5.294;2023-02-11T06:35:05;36.90;;;17.90;;
41817;SDS011;27493;51.730;5.294;2023-02-11T06:37:30;41.63;;;17.60;;
41817;SDS011;27493;51.730;5.294;2023-02-11T06:39:55;37.87;;;17.10;;
41817;SDS011;27493;51.730;5.294;2023-02-11T06:42:20;35.63;;;18.07;;
41817;SDS011;27493;51.730;5.294;2023-02-11T06:44:45;37.07;;;18.93;;
41817;SDS011;27493;51.730;5.294;2023-02-11T06:47:11;37.80;;;18.87;;
41817;SDS011;27493;51.730;5.294;2023-02-11T06:49:36;39.77;;;18.27;;
41817;SDS011;27493;51.730;5.294;2023-02-11T06:52:02;42.20;;;19.73;;
41817;SDS011;27493;51.730;5.294;2023-02-11T06:54:27;46.17;;;19.37;;
41817;SDS011;27493;51.730;5.294;2023-02-11T06:56:52;42.00;;;19.73;;
41817;SDS011;27493;51.730;5.294;2023-02-11T06:59:18;38.23;;;19.03;;
41817;SDS011;27493;51.730;5.294;2023-02-11T07:01:44;36.53;;;18.53;;
41817;SDS011;27493;51.730;5.294;2023-02-11T07:04:09;47.10;;;20.23;;
41817;SDS011;27493;51.730;5.294;2023-02-11T07:06:35;45.07;;;20.33;;
41817;SDS011;27493;51.730;5.294;2023-02-11T07:09:01;42.00;;;19.80;;
41817;SDS011;27493;51.730;5.294;2023-02-11T07:11:27;43.90;;;21.37;;
41817;SDS011;27493;51.730;5.294;2023-02-11T07:13:53;40.33;;;21.10;;
41817;SDS011;27493;51.730;5.294;2023-02-11T07:16:19;48.40;;;21.20;;
41817;SDS011;27493;51.730;5.294;2023-02-11T07:18:44;49.90;;;21.90;;
41817;SDS011;27493;51.730;5.294;2023-02-11T07:21:13;48.63;;;21.13;;
41817;SDS011;27493;51.730;5.294;2023-02-11T07:23:38;47.33;;;22.30;;
41817;SDS011;27493;51.730;5.294;2023-02-11T07:26:09;46.53;;;20.37;;
41817;SDS011;27493;51.730;5.294;2023-02-11T07:28:35;53.00;;;22.63;;
41817;SDS011;27493;51.730;5.294;2023-02-11T07:33:31;47.93;;;22.80;;
41817;SDS011;27493;51.730;5.294;2023-02-11T07:35:58;57.13;;;23.97;;
41817;SDS011;27493;51.730;5.294;2023-02-11T07:38:24;60.30;;;25.23;;
41817;SDS011;27493;51.730;5.294;2023-02-11T07:40:49;50.70;;;23.77;;
41817;SDS011;27493;51.730;5.294;2023-02-11T07:43:14;64.07;;;24.30;;
41817;SDS011;27493;51.730;5.294;2023-02-11T07:45:39;54.43;;;23.60;;
41817;SDS011;27493;51.730;5.294;2023-02-11T07:48:04;55.97;;;24.30;;
41817;SDS011;27493;51.730;5.294;2023-02-11T07:50:30;50.60;;;23.70;;
41817;SDS011;27493;51.730;5.294;2023-02-11T07:52:55;54.53;;;24.83;;
41817;SDS011;27493;51.730;5.294;2023-02-11T07:55:20;55.40;;;24.13;;
41817;SDS011;27493;51.730;5.294;2023-02-11T07:57:45;56.03;;;24.43;;
41817;SDS011;27493;51.730;5.294;2023-02-11T08:00:10;52.43;;;23.90;;
41817;SDS011;27493;51.730;5.294;2023-02-11T08:02:36;49.00;;;22.73;;
41817;SDS011;27493;51.730;5.294;2023-02-11T08:05:01;51.83;;;24.13;;
41817;SDS011;27493;51.730;5.294;2023-02-11T08:07:26;53.23;;;24.07;;
41817;SDS011;27493;51.730;5.294;2023-02-11T08:09:53;56.63;;;25.37;;
41817;SDS011;27493;51.730;5.294;2023-02-11T08:12:19;49.13;;;24.00;;
41817;SDS011;27493;51.730;5.294;2023-02-11T08:14:44;59.23;;;24.93;;
41817;SDS011;27493;51.730;5.294;2023-02-11T08:17:09;50.40;;;24.53;;
41817;SDS011;27493;51.730;5.294;2023-02-11T08:19:35;51.80;;;23.93;;
41817;SDS011;27493;51.730;5.294;2023-02-11T08:22:01;62.37;;;24.07;;
41817;SDS011;27493;51.730;5.294;2023-02-11T08:24:26;48.57;;;23.80;;
41817;SDS011;27493;51.730;5.294;2023-02-11T08:26:51;47.43;;;22.90;;
41817;SDS011;27493;51.730;5.294;2023-02-11T08:29:16;53.40;;;24.50;;
41817;SDS011;27493;51.730;5.294;2023-02-11T08:31:43;55.00;;;25.37;;
41817;SDS011;27493;51.730;5.294;2023-02-11T08:34:09;52.50;;;24.10;;
41817;SDS011;27493;51.730;5.294;2023-02-11T08:36:35;54.43;;;24.03;;
41817;SDS011;27493;51.730;5.294;2023-02-11T08:39:03;53.30;;;24.60;;
41817;SDS011;27493;51.730;5.294;2023-02-11T08:41:29;44.77;;;23.40;;
41817;SDS011;27493;51.730;5.294;2023-02-11T08:43:54;50.90;;;24.43;;
41817;SDS011;27493;51.730;5.294;2023-02-11T08:46:19;55.70;;;23.83;;
41817;SDS011;27493;51.730;5.294;2023-02-11T08:48:45;51.60;;;24.33;;
41817;SDS011;27493;51.730;5.294;2023-02-11T08:51:15;45.90;;;23.97;;
41817;SDS011;27493;51.730;5.294;2023-02-11T08:53:40;51.40;;;23.53;;
41817;SDS011;27493;51.730;5.294;2023-02-11T08:56:05;45.73;;;23.23;;
41817;SDS011;27493;51.730;5.294;2023-02-11T08:58:31;48.13;;;23.37;;
41817;SDS011;27493;51.730;5.294;2023-02-11T09:03:59;46.63;;;23.13;;
41817;SDS011;27493;51.730;5.294;2023-02-11T09:15:33;44.83;;;21.17;;
41817;SDS011;27493;51.730;5.294;2023-02-11T09:17:58;44.43;;;22.33;;
41817;SDS011;27493;51.730;5.294;2023-02-11T09:20:24;50.60;;;22.70;;
41817;SDS011;27493;51.730;5.294;2023-02-11T09:22:50;46.63;;;22.53;;
41817;SDS011;27493;51.730;5.294;2023-02-11T09:25:15;44.57;;;21.43;;
41817;SDS011;27493;51.730;5.294;2023-02-11T09:27:41;46.83;;;22.67;;
41817;SDS011;27493;51.730;5.294;2023-02-11T09:30:06;42.03;;;21.43;;
41817;SDS011;27493;51.730;5.294;2023-02-11T09:32:31;44.87;;;22.13;;
41817;SDS011;27493;51.730;5.294;2023-02-11T09:34:56;43.10;;;21.47;;
41817;SDS011;27493;51.730;5.294;2023-02-11T09:37:22;41.83;;;21.37;;
41817;SDS011;27493;51.730;5.294;2023-02-11T09:39:47;45.40;;;20.33;;
41817;SDS011;27493;51.730;5.294;2023-02-11T09:44:38;40.27;;;21.20;;
41817;SDS011;27493;51.730;5.294;2023-02-11T09:47:04;41.73;;;20.93;;
41817;SDS011;27493;51.730;5.294;2023-02-11T09:49:40;39.73;;;20.50;;
41817;SDS011;27493;51.730;5.294;2023-02-11T09:52:14;41.17;;;20.90;;
41817;SDS011;27493;51.730;5.294;2023-02-11T09:54:51;40.57;;;21.40;;
41817;SDS011;27493;51.730;5.294;2023-02-11T09:57:17;40.57;;;20.50;;
41817;SDS011;27493;51.730;5.294;2023-02-11T09:59:43;39.43;;;20.33;;
41817;SDS011;27493;51.730;5.294;2023-02-11T10:02:11;38.27;;;19.83;;
41817;SDS011;27493;51.730;5.294;2023-02-11T10:04:52;46.97;;;21.40;;
41817;SDS011;27493;51.730;5.294;2023-02-11T10:15:56;43.17;;;20.60;;
41817;SDS011;27493;51.730;5.294;2023-02-11T10:23:59;41.37;;;19.63;;
41817;SDS011;27493;51.730;5.294;2023-02-11T10:26:25;42.70;;;20.23;;
41817;SDS011;27493;51.730;5.294;2023-02-11T10:28:51;39.90;;;20.17;;
41817;SDS011;27493;51.730;5.294;2023-02-11T10:31:20;39.27;;;19.57;;
41817;SDS011;27493;51.730;5.294;2023-02-11T10:36:44;36.53;;;18.70;;
41817;SDS011;27493;51.730;5.294;2023-02-11T10:41:42;39.17;;;20.13;;
41817;SDS011;27493;51.730;5.294;2023-02-11T10:44:10;34.97;;;19.00;;
41817;SDS011;27493;51.730;5.294;2023-02-11T10:46:36;35.40;;;19.43;;
41817;SDS011;27493;51.730;5.294;2023-02-11T10:49:04;37.40;;;19.80;;
41817;SDS011;27493;51.730;5.294;2023-02-11T10:51:30;36.00;;;18.97;;
41817;SDS011;27493;51.730;5.294;2023-02-11T10:56:30;40.23;;;19.87;;
41817;SDS011;27493;51.730;5.294;2023-02-11T10:59:00;35.80;;;20.23;;
41817;SDS011;27493;51.730;5.294;2023-02-11T11:01:39;33.53;;;18.53;;
41817;SDS011;27493;51.730;5.294;2023-02-11T11:04:05;35.93;;;19.00;;
41817;SDS011;27493;51.730;5.294;2023-02-11T11:06:31;33.03;;;18.20;;
41817;SDS011;27493;51.730;5.294;2023-02-11T11:08:57;33.83;;;19.00;;
41817;SDS011;27493;51.730;5.294;2023-02-11T11:14:25;35.77;;;17.83;;
41817;SDS011;27493;51.730;5.294;2023-02-11T11:20:17;33.17;;;18.13;;
41817;SDS011;27493;51.730;5.294;2023-02-11T11:22:42;41.17;;;18.57;;
41817;SDS011;27493;51.730;5.294;2023-02-11T11:28:03;32.43;;;18.40;;
41817;SDS011;27493;51.730;5.294;2023-02-11T11:30:37;33.73;;;17.40;;
41817;SDS011;27493;51.730;5.294;2023-02-11T11:36:07;33.90;;;17.87;;
41817;SDS011;27493;51.730;5.294;2023-02-11T11:41:35;33.10;;;16.83;;
41817;SDS011;27493;51.730;5.294;2023-02-11T11:44:20;36.10;;;18.23;;
41817;SDS011;27493;51.730;5.294;2023-02-11T11:46:47;33.20;;;17.10;;
41817;SDS011;27493;51.730;5.294;2023-02-11T11:49:27;31.73;;;17.20;;
41817;SDS011;27493;51.730;5.294;2023-02-11T11:51:58;29.87;;;16.83;;
41817;SDS011;27493;51.730;5.294;2023-02-11T11:54:24;32.27;;;18.00;;
41817;SDS011;27493;51.730;5.294;2023-02-11T11:57:09;32.00;;;16.80;;
41817;SDS011;27493;51.730;5.294;2023-02-11T11:59:35;30.60;;;17.33;;
41817;SDS011;27493;51.730;5.294;2023-02-11T12:02:27;28.13;;;17.17;;
41817;SDS011;27493;51.730;5.294;2023-02-11T12:10:25;28.10;;;16.87;;
41817;SDS011;27493;51.730;5.294;2023-02-11T12:13:02;32.90;;;17.47;;
41817;SDS011;27493;51.730;5.294;2023-02-11T12:15:33;36.90;;;18.33;;
41817;SDS011;27493;51.730;5.294;2023-02-11T12:28:02;31.47;;;17.37;;
41817;SDS011;27493;51.730;5.294;2023-02-11T12:33:03;32.37;;;18.00;;
41817;SDS011;27493;51.730;5.294;2023-02-11T12:40:36;30.87;;;16.87;;
41817;SDS011;27493;51.730;5.294;2023-02-11T12:45:52;29.40;;;17.57;;
41817;SDS011;27493;51.730;5.294;2023-02-11T12:48:43;29.23;;;16.63;;
41817;SDS011;27493;51.730;5.294;2023-02-11T12:59:04;29.17;;;17.00;;
41817;SDS011;27493;51.730;5.294;2023-02-11T13:01:38;30.00;;;16.73;;
41817;SDS011;27493;51.730;5.294;2023-02-11T13:04:05;30.30;;;17.60;;
41817;SDS011;27493;51.730;5.294;2023-02-11T13:06:36;33.53;;;18.47;;
41817;SDS011;27493;51.730;5.294;2023-02-11T13:09:03;35.20;;;19.33;;
41817;SDS011;27493;51.730;5.294;2023-02-11T13:11:39;34.07;;;18.23;;
41817;SDS011;27493;51.730;5.294;2023-02-11T13:14:14;34.10;;;17.77;;
41817;SDS011;27493;51.730;5.294;2023-02-11T13:16:41;34.00;;;18.03;;
41817;SDS011;27493;51.730;5.294;2023-02-11T13:19:29;32.43;;;17.67;;
41817;SDS011;27493;51.730;5.294;2023-02-11T13:22:12;33.07;;;18.10;;
41817;SDS011;27493;51.730;5.294;2023-02-11T13:30:27;32.27;;;17.60;;
41817;SDS011;27493;51.730;5.294;2023-02-11T13:35:40;32.27;;;18.33;;
41817;SDS011;27493;51.730;5.294;2023-02-11T13:38:23;31.37;;;17.37;;
41817;SDS011;27493;51.730;5.294;2023-02-11T13:43:40;31.43;;;17.10;;
41817;SDS011;27493;51.730;5.294;2023-02-11T13:46:07;30.37;;;18.07;;
41817;SDS011;27493;51.730;5.294;2023-02-11T13:51:04;29.60;;;17.03;;
41817;SDS011;27493;51.730;5.294;2023-02-11T13:53:47;27.77;;;17.03;;
41817;SDS011;27493;51.730;5.294;2023-02-11T13:56:30;29.47;;;17.50;;
41817;SDS011;27493;51.730;5.294;2023-02-11T13:58:56;28.93;;;16.83;;
41817;SDS011;27493;51.730;5.294;2023-02-11T14:04:22;31.87;;;17.93;;
41817;SDS011;27493;51.730;5.294;2023-02-11T14:23:39;27.87;;;16.47;;
41817;SDS011;27493;51.730;5.294;2023-02-11T14:28:39;32.13;;;17.73;;
41817;SDS011;27493;51.730;5.294;2023-02-11T14:31:09;30.70;;;17.17;;
41817;SDS011;27493;51.730;5.294;2023-02-11T14:41:23;33.50;;;17.10;;
41817;SDS011;27493;51.730;5.294;2023-02-11T14:43:50;32.10;;;17.67;;
41817;SDS011;27493;51.730;5.294;2023-02-11T14:46:16;34.07;;;17.23;;
41817;SDS011;27493;51.730;5.294;2023-02-11T14:48:44;32.50;;;17.33;;
41817;SDS011;27493;51.730;5.294;2023-02-11T14:53:39;34.33;;;17.93;;
41817;SDS011;27493;51.730;5.294;2023-02-11T14:56:15;33.40;;;17.57;;
41817;SDS011;27493;51.730;5.294;2023-02-11T14:58:44;25.27;;;16.20;;
41817;SDS011;27493;51.730;5.294;2023-02-11T15:03:57;31.83;;;17.43;;
41817;SDS011;27493;51.730;5.294;2023-02-11T15:06:29;31.07;;;17.10;;
41817;SDS011;27493;51.730;5.294;2023-02-11T15:11:21;29.27;;;17.30;;
41817;SDS011;27493;51.730;5.294;2023-02-11T15:13:47;34.83;;;18.80;;
41817;SDS011;27493;51.730;5.294;2023-02-11T15:16:14;35.90;;;17.23;;
41817;SDS011;27493;51.730;5.294;2023-02-11T15:18:43;29.47;;;16.13;;
41817;SDS011;27493;51.730;5.294;2023-02-11T15:21:09;30.03;;;17.63;;
41817;SDS011;27493;51.730;5.294;2023-02-11T15:23:34;31.57;;;17.07;;
41817;SDS011;27493;51.730;5.294;2023-02-11T15:26:01;24.27;;;15.70;;
41817;SDS011;27493;51.730;5.294;2023-02-11T15:28:30;25.67;;;15.73;;
41817;SDS011;27493;51.730;5.294;2023-02-11T15:31:00;30.30;;;16.77;;
41817;SDS011;27493;51.730;5.294;2023-02-11T15:33:26;27.40;;;16.10;;
41817;SDS011;27493;51.730;5.294;2023-02-11T15:35:54;27.13;;;15.43;;
41817;SDS011;27493;51.730;5.294;2023-02-11T15:38:19;26.80;;;16.37;;
41817;SDS011;27493;51.730;5.294;2023-02-11T15:40:58;25.90;;;15.43;;
41817;SDS011;27493;51.730;5.294;2023-02-11T15:43:38;31.00;;;15.43;;
41817;SDS011;27493;51.730;5.294;2023-02-11T15:46:04;27.63;;;15.57;;
41817;SDS011;27493;51.730;5.294;2023-02-11T15:50:59;27.20;;;16.07;;
41817;SDS011;27493;51.730;5.294;2023-02-11T15:53:28;26.60;;;15.50;;
41817;SDS011;27493;51.730;5.294;2023-02-11T15:58:34;30.00;;;15.33;;
41817;SDS011;27493;51.730;5.294;2023-02-11T16:00:59;26.40;;;15.10;;
41817;SDS011;27493;51.730;5.294;2023-02-11T16:03:25;31.13;;;15.60;;
41817;SDS011;27493;51.730;5.294;2023-02-11T16:05:52;27.73;;;15.53;;
41817;SDS011;27493;51.730;5.294;2023-02-11T16:08:22;28.27;;;15.00;;
41817;SDS011;27493;51.730;5.294;2023-02-11T16:13:22;28.90;;;15.87;;
41817;SDS011;27493;51.730;5.294;2023-02-11T16:15:49;32.80;;;16.03;;
41817;SDS011;27493;51.730;5.294;2023-02-11T16:18:29;31.67;;;17.17;;
41817;SDS011;27493;51.730;5.294;2023-02-11T16:20:57;28.27;;;16.60;;
41817;SDS011;27493;51.730;5.294;2023-02-11T16:23:24;30.67;;;15.47;;
41817;SDS011;27493;51.730;5.294;2023-02-11T16:25:54;30.27;;;16.33;;
41817;SDS011;27493;51.730;5.294;2023-02-11T16:28:20;25.10;;;14.63;;
41817;SDS011;27493;51.730;5.294;2023-02-11T16:30:45;29.23;;;15.70;;
41817;SDS011;27493;51.730;5.294;2023-02-11T16:33:15;26.90;;;14.77;;
41817;SDS011;27493;51.730;5.294;2023-02-11T16:35:40;30.60;;;15.37;;
41817;SDS011;27493;51.730;5.294;2023-02-11T16:38:08;31.03;;;14.77;;
41817;SDS011;27493;51.730;5.294;2023-02-11T16:40:33;30.40;;;15.00;;
41817;SDS011;27493;51.730;5.294;2023-02-11T16:42:59;27.10;;;15.20;;
41817;SDS011;27493;51.730;5.294;2023-02-11T16:45:24;27.07;;;13.80;;
41817;SDS011;27493;51.730;5.294;2023-02-11T16:47:50;26.37;;;14.17;;
41817;SDS011;27493;51.730;5.294;2023-02-11T16:50:22;28.77;;;14.13;;
41817;SDS011;27493;51.730;5.294;2023-02-11T16:52:48;25.97;;;13.97;;
41817;SDS011;27493;51.730;5.294;2023-02-11T16:55:14;26.33;;;14.10;;
41817;SDS011;27493;51.730;5.294;2023-02-11T16:57:39;29.33;;;14.53;;
41817;SDS011;27493;51.730;5.294;2023-02-11T17:00:05;29.87;;;14.13;;
41817;SDS011;27493;51.730;5.294;2023-02-11T17:02:32;25.83;;;14.27;;
41817;SDS011;27493;51.730;5.294;2023-02-11T17:04:58;27.57;;;14.07;;
41817;SDS011;27493;51.730;5.294;2023-02-11T17:07:24;24.87;;;13.37;;
41817;SDS011;27493;51.730;5.294;2023-02-11T17:09:50;27.47;;;14.03;;
41817;SDS011;27493;51.730;5.294;2023-02-11T17:12:16;28.27;;;14.27;;
41817;SDS011;27493;51.730;5.294;2023-02-11T17:14:41;28.47;;;14.50;;
41817;SDS011;27493;51.730;5.294;2023-02-11T17:17:07;24.93;;;13.97;;
41817;SDS011;27493;51.730;5.294;2023-02-11T17:19:33;27.80;;;14.00;;
41817;SDS011;27493;51.730;5.294;2023-02-11T17:21:58;27.93;;;14.87;;